sensor_id;sensor_type;location;lat;lon;timestamp;pressure;altitude;pressure_sealevel;temperature
67822;BMP180;54434;50.096;20.082;2023-08-24T00:00:43;99143.20;;;16.90
67822;BMP180;54434;50.096;20.082;2023-08-24T00:03:38;99146.60;;;16.84
67822;BMP180;54434;50.096;20.082;2023-08-24T00:06:15;99148.00;;;16.80
67822;BMP180;54434;50.096;20.082;2023-08-24T00:08:52;99144.00;;;16.80
67822;BMP180;54434;50.096;20.082;2023-08-24T00:11:28;99149.80;;;16.72
67822;BMP180;54434;50.096;20.082;2023-08-24T00:14:05;99148.00;;;16.70
67822;BMP180;54434;50.096;20.082;2023-08-24T00:16:42;99147.20;;;16.62
67822;BMP180;54434;50.096;20.082;2023-08-24T00:19:18;99142.80;;;16.60
67822;BMP180;54434;50.096;20.082;2023-08-24T00:21:55;99143.00;;;16.52
67822;BMP180;54434;50.096;20.082;2023-08-24T00:24:31;99145.40;;;16.50
67822;BMP180;54434;50.096;20.082;2023-08-24T00:27:08;99147.00;;;16.48
67822;BMP180;54434;50.096;20.082;2023-08-24T00:29:45;99143.00;;;16.40
67822;BMP180;54434;50.096;20.082;2023-08-24T00:32:21;99142.80;;;16.40
67822;BMP180;54434;50.096;20.082;2023-08-24T00:34:58;99142.20;;;16.36
67822;BMP180;54434;50.096;20.082;2023-08-24T00:37:35;99142.40;;;16.30
67822;BMP180;54434;50.096;20.082;2023-08-24T00:40:13;99140.60;;;16.30
67822;BMP180;54434;50.096;20.082;2023-08-24T00:42:49;99142.60;;;16.30
67822;BMP180;54434;50.096;20.082;2023-08-24T00:45:26;99141.20;;;16.28
67822;BMP180;54434;50.096;20.082;2023-08-24T00:48:05;99139.20;;;16.20
67822;BMP180;54434;50.096;20.082;2023-08-24T00:50:41;99140.80;;;16.20
67822;BMP180;54434;50.096;20.082;2023-08-24T00:53:18;99139.20;;;16.20
67822;BMP180;54434;50.096;20.082;2023-08-24T00:55:56;99140.40;;;16.20
67822;BMP180;54434;50.096;20.082;2023-08-24T00:58:34;99137.00;;;16.10
67822;BMP180;54434;50.096;20.082;2023-08-24T01:01:11;99135.20;;;16.10
67822;BMP180;54434;50.096;20.082;2023-08-24T01:03:48;99135.00;;;16.10
67822;BMP180;54434;50.096;20.082;2023-08-24T01:06:25;99136.40;;;16.00
67822;BMP180;54434;50.096;20.082;2023-08-24T01:09:02;99137.60;;;16.00
67822;BMP180;54434;50.096;20.082;2023-08-24T01:11:56;99136.60;;;16.00
67822;BMP180;54434;50.096;20.082;2023-08-24T01:14:53;99136.80;;;16.00
67822;BMP180;54434;50.096;20.082;2023-08-24T01:17:34;99144.40;;;15.90
67822;BMP180;54434;50.096;20.082;2023-08-24T01:20:14;99140.00;;;15.90
67822;BMP180;54434;50.096;20.082;2023-08-24T01:23:02;99143.00;;;15.90
67822;BMP180;54434;50.096;20.082;2023-08-24T01:25:51;99144.00;;;15.84
67822;BMP180;54434;50.096;20.082;2023-08-24T01:28:28;99136.40;;;15.80
67822;BMP180;54434;50.096;20.082;2023-08-24T01:31:08;99136.80;;;15.80
67822;BMP180;54434;50.096;20.082;2023-08-24T01:33:46;99134.40;;;15.80
67822;BMP180;54434;50.096;20.082;2023-08-24T01:36:22;99131.20;;;15.80
67822;BMP180;54434;50.096;20.082;2023-08-24T01:39:14;99127.60;;;15.80
67822;BMP180;54434;50.096;20.082;2023-08-24T01:41:58;99127.20;;;15.70
67822;BMP180;54434;50.096;20.082;2023-08-24T01:44:40;99128.40;;;15.70
67822;BMP180;54434;50.096;20.082;2023-08-24T01:47:20;99131.20;;;15.70
67822;BMP180;54434;50.096;20.082;2023-08-24T01:49:58;99128.60;;;15.70
67822;BMP180;54434;50.096;20.082;2023-08-24T01:52:36;99131.40;;;15.70
67822;BMP180;54434;50.096;20.082;2023-08-24T01:55:15;99129.40;;;15.70
67822;BMP180;54434;50.096;20.082;2023-08-24T01:57:54;99127.00;;;15.70
67822;BMP180;54434;50.096;20.082;2023-08-24T02:00:31;99125.00;;;15.70
67822;BMP180;54434;50.096;20.082;2023-08-24T02:03:09;99125.60;;;15.62
67822;BMP180;54434;50.096;20.082;2023-08-24T02:05:45;99120.40;;;15.60
67822;BMP180;54434;50.096;20.082;2023-08-24T02:08:22;99121.00;;;15.60
67822;BMP180;54434;50.096;20.082;2023-08-24T02:10:59;99119.60;;;15.60
67822;BMP180;54434;50.096;20.082;2023-08-24T02:13:35;99116.60;;;15.50
67822;BMP180;54434;50.096;20.082;2023-08-24T02:16:12;99117.00;;;15.50
67822;BMP180;54434;50.096;20.082;2023-08-24T02:18:49;99117.20;;;15.50
67822;BMP180;54434;50.096;20.082;2023-08-24T02:21:26;99117.20;;;15.46
67822;BMP180;54434;50.096;20.082;2023-08-24T02:24:03;99125.00;;;15.40
67822;BMP180;54434;50.096;20.082;2023-08-24T02:26:39;99123.00;;;15.40
67822;BMP180;54434;50.096;20.082;2023-08-24T02:29:17;99122.60;;;15.40
67822;BMP180;54434;50.096;20.082;2023-08-24T02:31:55;99116.60;;;15.32
67822;BMP180;54434;50.096;20.082;2023-08-24T02:34:31;99122.00;;;15.30
67822;BMP180;54434;50.096;20.082;2023-08-24T02:37:08;99124.60;;;15.30
67822;BMP180;54434;50.096;20.082;2023-08-24T02:39:45;99127.00;;;15.30
67822;BMP180;54434;50.096;20.082;2023-08-24T02:42:24;99121.60;;;15.20
67822;BMP180;54434;50.096;20.082;2023-08-24T02:45:02;99124.20;;;15.20
67822;BMP180;54434;50.096;20.082;2023-08-24T02:47:39;99128.20;;;15.20
67822;BMP180;54434;50.096;20.082;2023-08-24T02:50:16;99122.60;;;15.10
67822;BMP180;54434;50.096;20.082;2023-08-24T02:52:52;99125.40;;;15.10
67822;BMP180;54434;50.096;20.082;2023-08-24T02:55:31;99122.40;;;15.10
67822;BMP180;54434;50.096;20.082;2023-08-24T02:58:08;99125.00;;;15.08
67822;BMP180;54434;50.096;20.082;2023-08-24T03:00:44;99121.20;;;15.00
67822;BMP180;54434;50.096;20.082;2023-08-24T03:03:22;99125.20;;;15.00
67822;BMP180;54434;50.096;20.082;2023-08-24T03:06:02;99121.80;;;14.98
67822;BMP180;54434;50.096;20.082;2023-08-24T03:08:39;99120.80;;;14.90
67822;BMP180;54434;50.096;20.082;2023-08-24T03:11:15;99124.60;;;14.90
67822;BMP180;54434;50.096;20.082;2023-08-24T03:13:51;99124.00;;;14.90
67822;BMP180;54434;50.096;20.082;2023-08-24T03:16:29;99122.40;;;14.80
67822;BMP180;54434;50.096;20.082;2023-08-24T03:19:05;99124.60;;;14.80
67822;BMP180;54434;50.096;20.082;2023-08-24T03:21:42;99122.40;;;14.80
67822;BMP180;54434;50.096;20.082;2023-08-24T03:24:19;99125.40;;;14.70
67822;BMP180;54434;50.096;20.082;2023-08-24T03:26:55;99125.60;;;14.70
67822;BMP180;54434;50.096;20.082;2023-08-24T03:29:33;99122.00;;;14.70
67822;BMP180;54434;50.096;20.082;2023-08-24T03:32:10;99118.80;;;14.60
67822;BMP180;54434;50.096;20.082;2023-08-24T03:34:47;99123.80;;;14.60
67822;BMP180;54434;50.096;20.082;2023-08-24T03:37:23;99127.80;;;14.60
67822;BMP180;54434;50.096;20.082;2023-08-24T03:40:01;99131.60;;;14.54
67822;BMP180;54434;50.096;20.082;2023-08-24T03:42:39;99140.20;;;14.50
67822;BMP180;54434;50.096;20.082;2023-08-24T03:45:16;99137.40;;;14.50
67822;BMP180;54434;50.096;20.082;2023-08-24T03:47:52;99142.80;;;14.50
67822;BMP180;54434;50.096;20.082;2023-08-24T03:50:29;99143.20;;;14.50
67822;BMP180;54434;50.096;20.082;2023-08-24T03:53:07;99142.60;;;14.44
67822;BMP180;54434;50.096;20.082;2023-08-24T03:55:46;99143.40;;;14.40
67822;BMP180;54434;50.096;20.082;2023-08-24T03:58:24;99143.60;;;14.44
67822;BMP180;54434;50.096;20.082;2023-08-24T04:01:00;99137.60;;;14.44
67822;BMP180;54434;50.096;20.082;2023-08-24T04:03:37;99137.80;;;14.48
67822;BMP180;54434;50.096;20.082;2023-08-24T04:06:16;99136.80;;;14.50
67822;BMP180;54434;50.096;20.082;2023-08-24T04:08:53;99135.20;;;14.50
67822;BMP180;54434;50.096;20.082;2023-08-24T04:11:31;99134.00;;;14.50
67822;BMP180;54434;50.096;20.082;2023-08-24T04:14:07;99136.00;;;14.50
67822;BMP180;54434;50.096;20.082;2023-08-24T04:16:43;99140.80;;;14.50
67822;BMP180;54434;50.096;20.082;2023-08-24T04:19:19;99144.20;;;14.60
67822;BMP180;54434;50.096;20.082;2023-08-24T04:21:56;99147.60;;;14.62
67822;BMP180;54434;50.096;20.082;2023-08-24T04:24:32;99148.60;;;14.70
67822;BMP180;54434;50.096;20.082;2023-08-24T04:27:09;99146.20;;;14.80
67822;BMP180;54434;50.096;20.082;2023-08-24T04:29:46;99145.40;;;14.90
67822;BMP180;54434;50.096;20.082;2023-08-24T04:32:23;99147.80;;;14.94
67822;BMP180;54434;50.096;20.082;2023-08-24T04:34:59;99142.60;;;15.00
67822;BMP180;54434;50.096;20.082;2023-08-24T04:37:36;99138.60;;;15.14
67822;BMP180;54434;50.096;20.082;2023-08-24T04:40:14;99141.60;;;15.40
67822;BMP180;54434;50.096;20.082;2023-08-24T04:42:51;99138.80;;;15.70
67822;BMP180;54434;50.096;20.082;2023-08-24T04:45:27;99137.80;;;16.06
67822;BMP180;54434;50.096;20.082;2023-08-24T04:48:05;99138.20;;;16.48
67822;BMP180;54434;50.096;20.082;2023-08-24T04:50:43;99135.00;;;16.92
67822;BMP180;54434;50.096;20.082;2023-08-24T04:53:22;99133.40;;;17.34
67822;BMP180;54434;50.096;20.082;2023-08-24T04:55:59;99129.80;;;17.88
67822;BMP180;54434;50.096;20.082;2023-08-24T04:58:37;99132.80;;;18.40
67822;BMP180;54434;50.096;20.082;2023-08-24T05:01:13;99136.80;;;18.90
67822;BMP180;54434;50.096;20.082;2023-08-24T05:03:50;99139.00;;;19.30
67822;BMP180;54434;50.096;20.082;2023-08-24T05:06:27;99143.40;;;19.72
67822;BMP180;54434;50.096;20.082;2023-08-24T05:09:04;99144.60;;;20.20
67822;BMP180;54434;50.096;20.082;2023-08-24T05:11:40;99146.20;;;20.72
67822;BMP180;54434;50.096;20.082;2023-08-24T05:14:17;99147.20;;;21.28
67822;BMP180;54434;50.096;20.082;2023-08-24T05:16:53;99148.00;;;21.80
67822;BMP180;54434;50.096;20.082;2023-08-24T05:19:30;99149.60;;;22.36
67822;BMP180;54434;50.096;20.082;2023-08-24T05:22:06;99149.80;;;22.90
67822;BMP180;54434;50.096;20.082;2023-08-24T05:24:43;99147.40;;;23.40
67822;BMP180;54434;50.096;20.082;2023-08-24T05:27:19;99152.40;;;23.84
67822;BMP180;54434;50.096;20.082;2023-08-24T05:29:56;99154.60;;;24.38
67822;BMP180;54434;50.096;20.082;2023-08-24T05:32:34;99153.80;;;24.80
67822;BMP180;54434;50.096;20.082;2023-08-24T05:35:14;99159.20;;;25.20
67822;BMP180;54434;50.096;20.082;2023-08-24T05:37:51;99162.20;;;25.56
67822;BMP180;54434;50.096;20.082;2023-08-24T05:40:28;99160.40;;;25.92
67822;BMP180;54434;50.096;20.082;2023-08-24T05:43:05;99161.20;;;26.30
67822;BMP180;54434;50.096;20.082;2023-08-24T05:45:42;99162.20;;;26.74
67822;BMP180;54434;50.096;20.082;2023-08-24T05:48:20;99167.80;;;27.00
67822;BMP180;54434;50.096;20.082;2023-08-24T05:50:56;99164.20;;;27.20
67822;BMP180;54434;50.096;20.082;2023-08-24T05:53:32;99163.80;;;27.56
67822;BMP180;54434;50.096;20.082;2023-08-24T05:56:09;99166.20;;;27.80
67822;BMP180;54434;50.096;20.082;2023-08-24T05:58:45;99165.20;;;28.10
67822;BMP180;54434;50.096;20.082;2023-08-24T06:01:22;99167.60;;;28.40
67822;BMP180;54434;50.096;20.082;2023-08-24T06:03:58;99165.40;;;28.50
67822;BMP180;54434;50.096;20.082;2023-08-24T06:06:34;99170.40;;;28.56
67822;BMP180;54434;50.096;20.082;2023-08-24T06:09:10;99166.20;;;28.86
67822;BMP180;54434;50.096;20.082;2023-08-24T06:11:47;99174.60;;;29.18
67822;BMP180;54434;50.096;20.082;2023-08-24T06:14:23;99172.00;;;29.40
67822;BMP180;54434;50.096;20.082;2023-08-24T06:17:08;99173.60;;;29.74
67822;BMP180;54434;50.096;20.082;2023-08-24T06:19:45;99177.40;;;30.00
67822;BMP180;54434;50.096;20.082;2023-08-24T06:22:22;99177.20;;;30.30
67822;BMP180;54434;50.096;20.082;2023-08-24T06:24:59;99175.80;;;30.50
67822;BMP180;54434;50.096;20.082;2023-08-24T06:27:36;99177.00;;;30.60
67822;BMP180;54434;50.096;20.082;2023-08-24T06:30:14;99181.40;;;30.70
67822;BMP180;54434;50.096;20.082;2023-08-24T06:32:50;99179.40;;;30.86
67822;BMP180;54434;50.096;20.082;2023-08-24T06:35:27;99180.80;;;30.80
67822;BMP180;54434;50.096;20.082;2023-08-24T06:38:04;99176.40;;;30.98
67822;BMP180;54434;50.096;20.082;2023-08-24T06:40:41;99178.60;;;31.10
67822;BMP180;54434;50.096;20.082;2023-08-24T06:43:18;99179.40;;;31.20
67822;BMP180;54434;50.096;20.082;2023-08-24T06:45:55;99176.40;;;31.40
67822;BMP180;54434;50.096;20.082;2023-08-24T06:48:31;99178.20;;;31.50
67822;BMP180;54434;50.096;20.082;2023-08-24T06:51:08;99179.40;;;31.60
67822;BMP180;54434;50.096;20.082;2023-08-24T06:53:44;99182.20;;;31.64
67822;BMP180;54434;50.096;20.082;2023-08-24T06:56:22;99186.20;;;31.70
67822;BMP180;54434;50.096;20.082;2023-08-24T06:58:58;99188.80;;;31.80
67822;BMP180;54434;50.096;20.082;2023-08-24T07:01:35;99193.80;;;32.00
67822;BMP180;54434;50.096;20.082;2023-08-24T07:04:12;99195.40;;;32.02
67822;BMP180;54434;50.096;20.082;2023-08-24T07:06:48;99194.00;;;32.04
67822;BMP180;54434;50.096;20.082;2023-08-24T07:09:26;99196.20;;;32.12
67822;BMP180;54434;50.096;20.082;2023-08-24T07:12:03;99199.80;;;32.20
67822;BMP180;54434;50.096;20.082;2023-08-24T07:14:42;99200.00;;;32.20
67822;BMP180;54434;50.096;20.082;2023-08-24T07:17:19;99202.80;;;32.20
67822;BMP180;54434;50.096;20.082;2023-08-24T07:19:56;99203.40;;;32.30
67822;BMP180;54434;50.096;20.082;2023-08-24T07:22:33;99204.40;;;32.50
67822;BMP180;54434;50.096;20.082;2023-08-24T07:25:11;99207.00;;;32.60
67822;BMP180;54434;50.096;20.082;2023-08-24T07:27:49;99213.80;;;32.80
67822;BMP180;54434;50.096;20.082;2023-08-24T07:30:27;99211.00;;;32.80
67822;BMP180;54434;50.096;20.082;2023-08-24T07:33:09;99212.40;;;32.90
67822;BMP180;54434;50.096;20.082;2023-08-24T07:35:46;99213.00;;;32.90
67822;BMP180;54434;50.096;20.082;2023-08-24T07:38:23;99210.40;;;32.90
67822;BMP180;54434;50.096;20.082;2023-08-24T07:40:59;99205.60;;;32.80
67822;BMP180;54434;50.096;20.082;2023-08-24T07:43:37;99208.00;;;32.98
67822;BMP180;54434;50.096;20.082;2023-08-24T07:46:13;99208.40;;;33.00
67822;BMP180;54434;50.096;20.082;2023-08-24T07:48:50;99204.80;;;33.00
67822;BMP180;54434;50.096;20.082;2023-08-24T07:51:27;99204.60;;;32.96
67822;BMP180;54434;50.096;20.082;2023-08-24T07:54:04;99207.40;;;33.00
67822;BMP180;54434;50.096;20.082;2023-08-24T07:56:41;99208.40;;;33.10
67822;BMP180;54434;50.096;20.082;2023-08-24T07:59:18;99204.60;;;33.10
67822;BMP180;54434;50.096;20.082;2023-08-24T08:01:55;99207.80;;;33.00
67822;BMP180;54434;50.096;20.082;2023-08-24T08:04:31;99210.20;;;32.90
67822;BMP180;54434;50.096;20.082;2023-08-24T08:07:08;99206.20;;;33.00
67822;BMP180;54434;50.096;20.082;2023-08-24T08:09:45;99206.20;;;33.00
67822;BMP180;54434;50.096;20.082;2023-08-24T08:12:22;99206.20;;;32.90
67822;BMP180;54434;50.096;20.082;2023-08-24T08:14:58;99211.60;;;32.80
67822;BMP180;54434;50.096;20.082;2023-08-24T08:17:35;99214.40;;;32.80
67822;BMP180;54434;50.096;20.082;2023-08-24T08:20:15;99208.40;;;32.70
67822;BMP180;54434;50.096;20.082;2023-08-24T08:22:52;99208.60;;;32.70
67822;BMP180;54434;50.096;20.082;2023-08-24T08:25:28;99208.80;;;32.80
67822;BMP180;54434;50.096;20.082;2023-08-24T08:28:09;99205.00;;;32.70
67822;BMP180;54434;50.096;20.082;2023-08-24T08:30:47;99204.00;;;32.70
67822;BMP180;54434;50.096;20.082;2023-08-24T08:33:24;99202.00;;;32.84
67822;BMP180;54434;50.096;20.082;2023-08-24T08:36:00;99203.60;;;32.80
67822;BMP180;54434;50.096;20.082;2023-08-24T08:38:38;99204.20;;;32.80
67822;BMP180;54434;50.096;20.082;2023-08-24T08:41:17;99199.00;;;32.70
67822;BMP180;54434;50.096;20.082;2023-08-24T08:43:57;99197.60;;;32.68
67822;BMP180;54434;50.096;20.082;2023-08-24T08:46:34;99198.20;;;32.52
67822;BMP180;54434;50.096;20.082;2023-08-24T08:49:13;99197.40;;;32.38
67822;BMP180;54434;50.096;20.082;2023-08-24T08:51:52;99199.20;;;32.30
67822;BMP180;54434;50.096;20.082;2023-08-24T08:54:29;99203.20;;;32.30
67822;BMP180;54434;50.096;20.082;2023-08-24T08:57:07;99198.40;;;32.10
67822;BMP180;54434;50.096;20.082;2023-08-24T08:59:44;99196.60;;;31.90
67822;BMP180;54434;50.096;20.082;2023-08-24T09:02:30;99194.20;;;31.80
67822;BMP180;54434;50.096;20.082;2023-08-24T09:05:09;99196.00;;;31.70
67822;BMP180;54434;50.096;20.082;2023-08-24T09:07:47;99192.40;;;31.42
67822;BMP180;54434;50.096;20.082;2023-08-24T09:10:25;99199.80;;;31.12
67822;BMP180;54434;50.096;20.082;2023-08-24T09:13:02;99197.80;;;30.90
67822;BMP180;54434;50.096;20.082;2023-08-24T09:15:40;99197.20;;;30.80
67822;BMP180;54434;50.096;20.082;2023-08-24T09:18:16;99197.40;;;30.76
67822;BMP180;54434;50.096;20.082;2023-08-24T09:20:54;99192.60;;;30.70
67822;BMP180;54434;50.096;20.082;2023-08-24T09:23:31;99185.60;;;30.70
67822;BMP180;54434;50.096;20.082;2023-08-24T09:26:07;99181.20;;;30.50
67822;BMP180;54434;50.096;20.082;2023-08-24T09:28:46;99180.80;;;30.30
67822;BMP180;54434;50.096;20.082;2023-08-24T09:31:24;99175.00;;;30.16
67822;BMP180;54434;50.096;20.082;2023-08-24T09:34:14;99173.00;;;29.90
67822;BMP180;54434;50.096;20.082;2023-08-24T09:36:50;99177.40;;;29.80
67822;BMP180;54434;50.096;20.082;2023-08-24T09:39:30;99175.60;;;29.80
67822;BMP180;54434;50.096;20.082;2023-08-24T09:42:12;99173.00;;;29.60
67822;BMP180;54434;50.096;20.082;2023-08-24T09:44:49;99177.20;;;29.50
67822;BMP180;54434;50.096;20.082;2023-08-24T09:47:26;99171.20;;;29.40
67822;BMP180;54434;50.096;20.082;2023-08-24T09:50:06;99168.60;;;29.30
67822;BMP180;54434;50.096;20.082;2023-08-24T09:52:46;99167.60;;;29.20
67822;BMP180;54434;50.096;20.082;2023-08-24T09:55:23;99167.20;;;29.10
67822;BMP180;54434;50.096;20.082;2023-08-24T09:58:02;99166.80;;;29.00
67822;BMP180;54434;50.096;20.082;2023-08-24T10:00:40;99166.00;;;28.70
67822;BMP180;54434;50.096;20.082;2023-08-24T10:03:21;99167.40;;;28.40
67822;BMP180;54434;50.096;20.082;2023-08-24T10:06:02;99165.80;;;28.10
67822;BMP180;54434;50.096;20.082;2023-08-24T10:08:54;99167.40;;;27.90
67822;BMP180;54434;50.096;20.082;2023-08-24T10:11:36;99167.60;;;27.70
67822;BMP180;54434;50.096;20.082;2023-08-24T10:14:26;99168.80;;;27.52
67822;BMP180;54434;50.096;20.082;2023-08-24T10:17:04;99167.00;;;27.50
67822;BMP180;54434;50.096;20.082;2023-08-24T10:19:41;99165.60;;;27.38
67822;BMP180;54434;50.096;20.082;2023-08-24T10:22:19;99165.60;;;27.30
67822;BMP180;54434;50.096;20.082;2023-08-24T10:24:57;99168.60;;;27.18
67822;BMP180;54434;50.096;20.082;2023-08-24T10:27:35;99167.00;;;27.00
67822;BMP180;54434;50.096;20.082;2023-08-24T10:30:15;99164.60;;;27.08
67822;BMP180;54434;50.096;20.082;2023-08-24T10:32:53;99162.80;;;27.20
67822;BMP180;54434;50.096;20.082;2023-08-24T10:35:31;99152.80;;;27.24
67822;BMP180;54434;50.096;20.082;2023-08-24T10:38:08;99145.20;;;27.30
67822;BMP180;54434;50.096;20.082;2023-08-24T10:40:45;99146.80;;;27.50
67822;BMP180;54434;50.096;20.082;2023-08-24T10:43:24;99147.40;;;27.70
67822;BMP180;54434;50.096;20.082;2023-08-24T10:46:03;99144.60;;;27.90
67822;BMP180;54434;50.096;20.082;2023-08-24T10:49:05;99143.00;;;27.90
67822;BMP180;54434;50.096;20.082;2023-08-24T10:51:48;99140.20;;;28.00
67822;BMP180;54434;50.096;20.082;2023-08-24T10:54:32;99135.40;;;28.10
67822;BMP180;54434;50.096;20.082;2023-08-24T10:57:26;99132.20;;;28.30
67822;BMP180;54434;50.096;20.082;2023-08-24T11:00:10;99128.40;;;28.40
67822;BMP180;54434;50.096;20.082;2023-08-24T11:02:49;99124.20;;;28.50
67822;BMP180;54434;50.096;20.082;2023-08-24T11:05:31;99117.60;;;28.60
67822;BMP180;54434;50.096;20.082;2023-08-24T11:08:09;99120.40;;;28.68
67822;BMP180;54434;50.096;20.082;2023-08-24T11:10:51;99122.20;;;28.70
67822;BMP180;54434;50.096;20.082;2023-08-24T11:13:29;99121.20;;;28.80
67822;BMP180;54434;50.096;20.082;2023-08-24T11:16:06;99115.60;;;28.96
67822;BMP180;54434;50.096;20.082;2023-08-24T11:19:06;99110.20;;;29.00
67822;BMP180;54434;50.096;20.082;2023-08-24T11:21:44;99113.20;;;29.06
67822;BMP180;54434;50.096;20.082;2023-08-24T11:24:22;99112.40;;;29.20
67822;BMP180;54434;50.096;20.082;2023-08-24T11:27:04;99111.60;;;29.24
67822;BMP180;54434;50.096;20.082;2023-08-24T11:29:45;99107.00;;;29.40
67822;BMP180;54434;50.096;20.082;2023-08-24T11:32:22;99109.80;;;29.56
67822;BMP180;54434;50.096;20.082;2023-08-24T11:34:59;99109.20;;;29.70
67822;BMP180;54434;50.096;20.082;2023-08-24T11:37:36;99106.00;;;29.80
67822;BMP180;54434;50.096;20.082;2023-08-24T11:40:21;99103.80;;;29.92
67822;BMP180;54434;50.096;20.082;2023-08-24T11:43:01;99106.00;;;30.00
67822;BMP180;54434;50.096;20.082;2023-08-24T11:45:46;99103.00;;;30.00
67822;BMP180;54434;50.096;20.082;2023-08-24T11:48:25;99101.00;;;30.00
67822;BMP180;54434;50.096;20.082;2023-08-24T11:51:07;99094.00;;;30.00
67822;BMP180;54434;50.096;20.082;2023-08-24T11:53:45;99090.40;;;30.00
67822;BMP180;54434;50.096;20.082;2023-08-24T11:56:22;99089.00;;;29.90
67822;BMP180;54434;50.096;20.082;2023-08-24T11:58:58;99089.60;;;29.82
67822;BMP180;54434;50.096;20.082;2023-08-24T12:01:36;99085.00;;;29.70
67822;BMP180;54434;50.096;20.082;2023-08-24T12:04:14;99088.60;;;29.60
67822;BMP180;54434;50.096;20.082;2023-08-24T12:06:50;99092.60;;;29.60
67822;BMP180;54434;50.096;20.082;2023-08-24T12:09:31;99089.80;;;29.60
67822;BMP180;54434;50.096;20.082;2023-08-24T12:12:13;99085.40;;;29.60
67822;BMP180;54434;50.096;20.082;2023-08-24T12:14:51;99084.40;;;29.70
67822;BMP180;54434;50.096;20.082;2023-08-24T12:17:27;99079.80;;;29.60
67822;BMP180;54434;50.096;20.082;2023-08-24T12:20:05;99077.60;;;29.40
67822;BMP180;54434;50.096;20.082;2023-08-24T12:22:51;99072.00;;;29.30
67822;BMP180;54434;50.096;20.082;2023-08-24T12:25:28;99068.20;;;29.10
67822;BMP180;54434;50.096;20.082;2023-08-24T12:28:16;99062.00;;;29.04
67822;BMP180;54434;50.096;20.082;2023-08-24T12:30:54;99059.60;;;29.00
67822;BMP180;54434;50.096;20.082;2023-08-24T12:33:34;99054.00;;;28.90
67822;BMP180;54434;50.096;20.082;2023-08-24T12:36:11;99057.60;;;28.80
67822;BMP180;54434;50.096;20.082;2023-08-24T12:38:47;99054.40;;;28.70
67822;BMP180;54434;50.096;20.082;2023-08-24T12:41:24;99050.40;;;28.70
67822;BMP180;54434;50.096;20.082;2023-08-24T12:44:00;99051.80;;;28.70
67822;BMP180;54434;50.096;20.082;2023-08-24T12:46:43;99051.60;;;28.60
67822;BMP180;54434;50.096;20.082;2023-08-24T12:49:25;99053.40;;;28.40
67822;BMP180;54434;50.096;20.082;2023-08-24T12:52:02;99063.20;;;28.30
67822;BMP180;54434;50.096;20.082;2023-08-24T12:54:38;99054.20;;;28.18
67822;BMP180;54434;50.096;20.082;2023-08-24T12:57:14;99054.80;;;28.00
67822;BMP180;54434;50.096;20.082;2023-08-24T12:59:51;99049.20;;;28.00
67822;BMP180;54434;50.096;20.082;2023-08-24T13:02:29;99039.20;;;28.00
67822;BMP180;54434;50.096;20.082;2023-08-24T13:05:13;99031.00;;;28.00
67822;BMP180;54434;50.096;20.082;2023-08-24T13:07:49;99026.80;;;28.00
67822;BMP180;54434;50.096;20.082;2023-08-24T13:10:27;99016.60;;;28.10
67822;BMP180;54434;50.096;20.082;2023-08-24T13:13:05;99016.00;;;28.00
67822;BMP180;54434;50.096;20.082;2023-08-24T13:15:41;99018.60;;;28.02
67822;BMP180;54434;50.096;20.082;2023-08-24T13:18:18;99014.60;;;28.10
67822;BMP180;54434;50.096;20.082;2023-08-24T13:20:54;99019.20;;;28.06
67822;BMP180;54434;50.096;20.082;2023-08-24T13:23:31;99017.40;;;28.00
67822;BMP180;54434;50.096;20.082;2023-08-24T13:26:18;99012.00;;;28.00
67822;BMP180;54434;50.096;20.082;2023-08-24T13:28:55;99011.00;;;28.10
67822;BMP180;54434;50.096;20.082;2023-08-24T13:31:33;99007.20;;;28.20
67822;BMP180;54434;50.096;20.082;2023-08-24T13:34:10;99008.40;;;28.26
67822;BMP180;54434;50.096;20.082;2023-08-24T13:36:47;99008.00;;;28.30
67822;BMP180;54434;50.096;20.082;2023-08-24T13:39:25;99013.00;;;28.40
67822;BMP180;54434;50.096;20.082;2023-08-24T13:42:04;99007.80;;;28.40
67822;BMP180;54434;50.096;20.082;2023-08-24T13:44:41;99006.40;;;28.44
67822;BMP180;54434;50.096;20.082;2023-08-24T13:47:18;99002.00;;;28.40
67822;BMP180;54434;50.096;20.082;2023-08-24T13:49:56;98998.00;;;28.50
67822;BMP180;54434;50.096;20.082;2023-08-24T13:52:33;98997.00;;;28.60
67822;BMP180;54434;50.096;20.082;2023-08-24T13:55:16;98995.80;;;28.60
67822;BMP180;54434;50.096;20.082;2023-08-24T13:57:52;98998.40;;;28.60
67822;BMP180;54434;50.096;20.082;2023-08-24T14:00:29;98990.80;;;28.60
67822;BMP180;54434;50.096;20.082;2023-08-24T14:03:07;98990.00;;;28.60
67822;BMP180;54434;50.096;20.082;2023-08-24T14:05:44;98986.20;;;28.60
67822;BMP180;54434;50.096;20.082;2023-08-24T14:08:22;98990.80;;;28.60
67822;BMP180;54434;50.096;20.082;2023-08-24T14:10:58;98986.40;;;28.50
67822;BMP180;54434;50.096;20.082;2023-08-24T14:13:35;98990.20;;;28.50
67822;BMP180;54434;50.096;20.082;2023-08-24T14:16:11;98987.80;;;28.40
67822;BMP180;54434;50.096;20.082;2023-08-24T14:18:48;98982.40;;;28.40
67822;BMP180;54434;50.096;20.082;2023-08-24T14:21:25;98976.40;;;28.30
67822;BMP180;54434;50.096;20.082;2023-08-24T14:24:19;98971.40;;;28.30
67822;BMP180;54434;50.096;20.082;2023-08-24T14:26:57;98973.40;;;28.30
67822;BMP180;54434;50.096;20.082;2023-08-24T14:29:34;98978.00;;;28.30
67822;BMP180;54434;50.096;20.082;2023-08-24T14:32:10;98977.40;;;28.20
67822;BMP180;54434;50.096;20.082;2023-08-24T14:34:46;98974.40;;;28.20
67822;BMP180;54434;50.096;20.082;2023-08-24T14:37:24;98972.20;;;28.10
67822;BMP180;54434;50.096;20.082;2023-08-24T14:40:01;98969.80;;;28.00
67822;BMP180;54434;50.096;20.082;2023-08-24T14:42:40;98971.20;;;27.92
67822;BMP180;54434;50.096;20.082;2023-08-24T14:45:17;98972.00;;;27.86
67822;BMP180;54434;50.096;20.082;2023-08-24T14:47:53;98972.60;;;27.78
67822;BMP180;54434;50.096;20.082;2023-08-24T14:50:30;98972.40;;;27.66
67822;BMP180;54434;50.096;20.082;2023-08-24T14:53:08;98969.20;;;27.60
67822;BMP180;54434;50.096;20.082;2023-08-24T14:55:44;98968.40;;;27.40
67822;BMP180;54434;50.096;20.082;2023-08-24T14:58:21;98967.20;;;27.20